createdAt,value
2023-02-28T00:00:12.901Z,99195.03
2023-02-28T00:02:40.004Z,99190.72
2023-02-28T00:05:07.147Z,99182.16
2023-02-28T00:07:33.918Z,99177.06
2023-02-28T00:10:00.931Z,99156.44
2023-02-28T00:12:27.360Z,99159.91
2023-02-28T00:14:53.837Z,99160.78
2023-02-28T00:17:21.971Z,99159.94
2023-02-28T00:19:51.845Z,99171.97
2023-02-28T00:22:19.563Z,99170.25
2023-02-28T00:24:46.435Z,99179.75
2023-02-28T00:27:12.977Z,99187.47
2023-02-28T00:29:39.433Z,99181.50
2023-02-28T00:32:05.997Z,99185.81
2023-02-28T00:34:33.523Z,99173.81
2023-02-28T00:36:59.891Z,99181.53
2023-02-28T00:39:26.268Z,99183.28
2023-02-28T00:41:52.626Z,99186.72
2023-02-28T00:44:19.011Z,99187.59
2023-02-28T00:46:45.356Z,99175.59
2023-02-28T00:49:11.716Z,99184.19
2023-02-28T00:51:38.096Z,99176.47
2023-02-28T00:54:04.677Z,99174.78
2023-02-28T00:56:31.046Z,99184.22
2023-02-28T00:58:57.598Z,99191.94
2023-02-28T01:01:23.991Z,99187.66
2023-02-28T01:03:50.540Z,99188.53
2023-02-28T01:06:16.950Z,99178.25
2023-02-28T01:08:43.497Z,99171.38
2023-02-28T01:11:11.193Z,99155.94
2023-02-28T01:13:37.656Z,99152.50
2023-02-28T01:16:04.543Z,99148.25
2023-02-28T01:18:31.582Z,99146.53
2023-02-28T01:20:57.953Z,99141.41
2023-02-28T01:23:24.549Z,99147.38
2023-02-28T01:25:52.026Z,99151.69
2023-02-28T01:28:18.361Z,99154.22
2023-02-28T01:30:49.093Z,99159.38
2023-02-28T01:33:15.461Z,99147.41
2023-02-28T01:35:42.646Z,99151.69
2023-02-28T01:38:21.207Z,99144.84
2023-02-28T01:40:48.944Z,99132.88
2023-02-28T01:43:44.611Z,99105.44
2023-02-28T01:46:11.507Z,99103.72
2023-02-28T01:48:42.823Z,99108.00
2023-02-28T01:51:12.044Z,99119.16
2023-02-28T01:53:43.514Z,99122.59
2023-02-28T01:56:09.973Z,99137.16
2023-02-28T01:58:36.328Z,99144.03
2023-02-28T02:01:03.934Z,99148.31
2023-02-28T02:03:30.371Z,99146.59
2023-02-28T02:05:56.771Z,99148.34
2023-02-28T02:08:27.717Z,99137.19
2023-02-28T02:11:00.631Z,99134.63
2023-02-28T02:13:59.475Z,99134.63
2023-02-28T02:16:52.117Z,99136.34
2023-02-28T02:19:46.231Z,99153.50
2023-02-28T02:22:27.667Z,99158.66
2023-02-28T02:25:13.178Z,99151.81
2023-02-28T02:27:58.527Z,99134.69
2023-02-28T02:30:24.851Z,99124.41
2023-02-28T02:33:10.188Z,99119.28
2023-02-28T02:35:50.995Z,99105.56
2023-02-28T02:38:38.064Z,99072.19
2023-02-28T02:41:16.784Z,99064.44
2023-02-28T02:43:46.910Z,99055.00
2023-02-28T02:46:16.366Z,99044.72
2023-02-28T02:48:42.994Z,99035.31
2023-02-28T02:51:13.411Z,99007.03
2023-02-28T02:53:50.430Z,98980.44
2023-02-28T02:56:21.224Z,98974.41
2023-02-28T02:58:48.177Z,98964.06
2023-02-28T03:01:28.671Z,98964.91
2023-02-28T03:03:59.704Z,98979.38
2023-02-28T03:06:26.472Z,98994.78
2023-02-28T03:08:52.844Z,99006.78
2023-02-28T03:11:21.420Z,99023.06
2023-02-28T03:14:10.808Z,99041.91
2023-02-28T03:16:48.272Z,99048.78
2023-02-28T03:19:52.462Z,99050.53
2023-02-28T03:22:29.092Z,99042.81
2023-02-28T03:25:02.771Z,99029.97
2023-02-28T03:27:34.206Z,99039.38
2023-02-28T03:30:25.104Z,99045.38
2023-02-28T03:33:06.457Z,99043.69
2023-02-28T03:35:45.880Z,99037.69
2023-02-28T03:38:30.643Z,99019.69
2023-02-28T03:41:07.914Z,99000.81
2023-02-28T03:43:36.320Z,99002.50
2023-02-28T03:46:04.177Z,98995.69
2023-02-28T03:48:58.604Z,99008.53
2023-02-28T03:51:25.452Z,99006.84
2023-02-28T03:53:54.043Z,99013.69
2023-02-28T03:56:41.814Z,99014.56
2023-02-28T03:59:27.641Z,99001.72
2023-02-28T04:01:54.062Z,99002.56
2023-02-28T04:04:20.427Z,98996.56
2023-02-28T04:06:46.889Z,99001.69
2023-02-28T04:09:14.605Z,99004.25
2023-02-28T04:11:45.024Z,99016.28
2023-02-28T04:14:11.827Z,99006.84
2023-02-28T04:16:40.196Z,98995.69
2023-02-28T04:19:07.384Z,98981.97
2023-02-28T04:21:44.052Z,98978.50
2023-02-28T04:24:15.121Z,98995.66
2023-02-28T04:26:50.061Z,99021.38
2023-02-28T04:29:24.519Z,99044.53
2023-02-28T04:31:51.350Z,99053.97
2023-02-28T04:34:19.871Z,99053.97
2023-02-28T04:36:46.916Z,99071.16
2023-02-28T04:39:13.517Z,99084.03
2023-02-28T04:41:39.920Z,99078.91
2023-02-28T04:44:06.329Z,99077.16
2023-02-28T04:46:32.752Z,99089.13
2023-02-28T04:48:59.957Z,99091.75
2023-02-28T04:51:26.340Z,99094.31
2023-02-28T04:53:53.069Z,99104.63
2023-02-28T04:56:19.643Z,99078.94
2023-02-28T04:58:46.267Z,99081.50
2023-02-28T05:01:39.023Z,99084.94
2023-02-28T05:04:05.668Z,99085.81
2023-02-28T05:06:33.249Z,99093.53
2023-02-28T05:08:59.886Z,99095.25
2023-02-28T05:11:36.314Z,99104.69
2023-02-28T05:14:08.160Z,99102.13
2023-02-28T05:16:34.541Z,99114.13
2023-02-28T05:19:00.914Z,99121.84
2023-02-28T05:21:32.770Z,99109.00
2023-02-28T05:24:00.747Z,99105.56
2023-02-28T05:26:27.482Z,99110.69
2023-02-28T05:28:54.129Z,99111.56
2023-02-28T05:31:20.628Z,99120.13
2023-02-28T05:33:47.150Z,99139.81
2023-02-28T05:36:13.781Z,99139.84
2023-02-28T05:38:40.296Z,99144.13
2023-02-28T05:41:10.265Z,99143.28
2023-02-28T05:43:38.018Z,99135.56
2023-02-28T05:46:06.568Z,99132.97
2023-02-28T05:48:34.138Z,99134.72
2023-02-28T05:51:00.898Z,99152.69
2023-02-28T05:53:27.410Z,99160.41
2023-02-28T05:55:53.996Z,99154.44
2023-02-28T05:58:20.436Z,99168.97
2023-02-28T06:00:46.804Z,99169.81
2023-02-28T06:03:13.143Z,99177.53
2023-02-28T06:05:39.549Z,99199.78
2023-02-28T06:08:07.937Z,99198.94
2023-02-28T06:10:35.467Z,99189.50
2023-02-28T06:13:03.441Z,99202.34
2023-02-28T06:15:29.963Z,99216.06
2023-02-28T06:17:59.476Z,99200.66
2023-02-28T06:20:30.157Z,99210.03
2023-02-28T06:22:59.523Z,99219.47
2023-02-28T06:25:27.329Z,99223.75
2023-02-28T06:27:54.237Z,99220.28
2023-02-28T06:30:24.730Z,99222.88
2023-02-28T06:32:51.064Z,99224.56
2023-02-28T06:35:17.711Z,99228.00
2023-02-28T06:37:44.884Z,99215.16
2023-02-28T06:40:11.807Z,99204.06
2023-02-28T06:42:38.182Z,99210.91
2023-02-28T06:45:09.937Z,99211.75
2023-02-28T06:47:37.493Z,99221.16
2023-02-28T06:50:04.304Z,99215.16
2023-02-28T06:52:30.705Z,99215.19
2023-02-28T06:55:01.072Z,99221.16
2023-02-28T06:57:32.154Z,99210.06
2023-02-28T07:00:02.005Z,99202.34
2023-02-28T07:02:28.518Z,99185.25
2023-02-28T07:04:55.203Z,99204.91
2023-02-28T07:07:21.836Z,99203.19
2023-02-28T07:09:48.200Z,99197.22
2023-02-28T07:12:14.604Z,99179.25
2023-02-28T07:14:40.951Z,99163.81
2023-02-28T07:17:12.862Z,99157.84
2023-02-28T07:19:40.073Z,99164.66
2023-02-28T07:22:06.997Z,99174.09
2023-02-28T07:24:33.408Z,99176.66
2023-02-28T07:27:00.332Z,99177.50
2023-02-28T07:29:26.845Z,99168.91
2023-02-28T07:31:54.101Z,99156.06
2023-02-28T07:34:21.577Z,99144.06
2023-02-28T07:36:47.994Z,99136.31
2023-02-28T07:39:14.356Z,99129.50
2023-02-28T07:41:44.620Z,99127.75
2023-02-28T07:44:11.704Z,99123.41
2023-02-28T07:46:38.354Z,99132.00
2023-02-28T07:49:05.216Z,99124.25
2023-02-28T07:51:31.893Z,99137.09
2023-02-28T07:53:58.459Z,99130.22
2023-02-28T07:56:24.937Z,99148.13
2023-02-28T07:58:51.280Z,99173.78
2023-02-28T08:01:18.273Z,99203.78
2023-02-28T08:03:44.869Z,99223.47
2023-02-28T08:06:17.296Z,99235.44
2023-02-28T08:08:43.624Z,99254.25
2023-02-28T08:11:10.143Z,99275.66
2023-02-28T08:13:36.588Z,99303.94
2023-02-28T08:16:03.098Z,99340.78
2023-02-28T08:18:29.732Z,99382.81
2023-02-28T08:20:56.300Z,99410.25
2023-02-28T08:23:22.656Z,99423.09
2023-02-28T08:25:58.089Z,99421.38
2023-02-28T08:28:26.998Z,99433.38
2023-02-28T08:30:53.544Z,99452.22
2023-02-28T08:33:20.166Z,99494.25
2023-02-28T08:35:46.546Z,99519.16
2023-02-28T08:38:12.927Z,99536.34
2023-02-28T08:40:39.549Z,99538.03
2023-02-28T08:43:05.895Z,99551.78
2023-02-28T08:45:32.314Z,99547.47
2023-02-28T08:47:58.752Z,99549.13
2023-02-28T08:50:25.211Z,99556.81
2023-02-28T08:52:51.627Z,99545.63
2023-02-28T08:55:18.212Z,99542.16
2023-02-28T08:57:44.596Z,99556.69
2023-02-28T09:00:14.421Z,99572.97
2023-02-28T09:02:41.661Z,99592.72
2023-02-28T09:05:08.965Z,99623.63
2023-02-28T09:07:35.357Z,99631.31
2023-02-28T09:10:01.949Z,99637.28
2023-02-28T09:12:28.891Z,99641.53
2023-02-28T09:14:55.251Z,99658.69
2023-02-28T09:17:21.681Z,99675.00
2023-02-28T09:19:51.069Z,99691.28
2023-02-28T09:22:17.551Z,99691.22
2023-02-28T09:24:45.507Z,99704.94
2023-02-28T09:27:12.044Z,99716.91
2023-02-28T09:29:38.382Z,99737.53
2023-02-28T09:32:06.657Z,99776.19
2023-02-28T09:34:33.267Z,99790.81
2023-02-28T09:36:59.796Z,99788.22
2023-02-28T09:39:27.726Z,99795.88
2023-02-28T09:41:55.241Z,99825.22
2023-02-28T09:44:25.151Z,99838.03
2023-02-28T09:46:55.421Z,99859.56
2023-02-28T09:49:24.782Z,99875.06
2023-02-28T09:51:59.722Z,99928.50
2023-02-28T09:54:29.052Z,99935.31
2023-02-28T09:57:05.995Z,99917.22
2023-02-28T09:59:54.388Z,99935.22
2023-02-28T10:02:48.303Z,99963.63
2023-02-28T10:05:19.800Z,99991.25
2023-02-28T10:07:49.279Z,99987.66
2023-02-28T10:10:25.171Z,100018.66
2023-02-28T10:12:53.800Z,100053.16
2023-02-28T10:15:20.144Z,100143.72
2023-02-28T10:17:55.208Z,100200.69
2023-02-28T10:20:32.368Z,100179.94
2023-02-28T10:23:22.607Z,100264.53
2023-02-28T10:26:01.258Z,100349.13
2023-02-28T10:28:28.019Z,100463.13
2023-02-28T10:30:54.600Z,100484.66
2023-02-28T10:33:23.995Z,100557.25
2023-02-28T10:35:50.805Z,100513.19
2023-02-28T10:38:26.721Z,100552.94
2023-02-28T10:40:53.108Z,100518.34
2023-02-28T10:43:20.838Z,100471.63
2023-02-28T10:46:00.683Z,100506.19
2023-02-28T10:48:30.660Z,100576.22
2023-02-28T10:50:58.790Z,100603.00
2023-02-28T10:53:28.222Z,100768.16
2023-02-28T10:56:04.804Z,100864.22
2023-02-28T10:58:32.861Z,100910.94
2023-02-28T11:00:59.904Z,101025.28
2023-02-28T11:03:36.105Z,101059.09
2023-02-28T11:06:22.322Z,101037.47
2023-02-28T11:09:04.881Z,101119.75
2023-02-28T11:11:32.717Z,101111.13
2023-02-28T11:14:05.024Z,101158.84
2023-02-28T11:16:35.964Z,101197.03
2023-02-28T11:19:02.418Z,101155.41
2023-02-28T11:21:30.139Z,101152.00
2023-02-28T11:24:05.393Z,101237.03
2023-02-28T11:26:45.511Z,101315.88
2023-02-28T11:29:17.290Z,101296.88
2023-02-28T11:31:43.846Z,101395.00
2023-02-28T11:34:24.364Z,101419.13
2023-02-28T11:36:50.710Z,101392.91
2023-02-28T11:39:17.107Z,101437.81
2023-02-28T11:42:11.603Z,101405.84
2023-02-28T11:44:59.225Z,101395.91
2023-02-28T11:47:39.080Z,101355.09
2023-02-28T11:50:41.175Z,101336.34
2023-02-28T11:53:46.074Z,101394.56
2023-02-28T11:56:30.996Z,101480.22
2023-02-28T11:59:19.223Z,101529.03
2023-02-28T12:01:54.904Z,101499.75
2023-02-28T12:04:43.774Z,101487.66
2023-02-28T12:07:26.782Z,101507.72
2023-02-28T12:10:03.107Z,101522.78
2023-02-28T12:13:08.113Z,101548.06
2023-02-28T12:15:55.703Z,101950.88
2023-02-28T12:18:31.003Z,102209.09
2023-02-28T12:21:16.459Z,102286.59
2023-02-28T12:24:00.506Z,102321.25
2023-02-28T12:26:47.871Z,102347.06
2023-02-28T12:29:27.052Z,102346.94
2023-02-28T12:32:14.809Z,102354.25
2023-02-28T12:34:46.631Z,102360.84
2023-02-28T12:37:39.567Z,102352.81
2023-02-28T12:40:08.647Z,102341.78
2023-02-28T12:42:39.592Z,102347.31
2023-02-28T12:45:13.480Z,102346.69
2023-02-28T12:47:39.871Z,102346.44
2023-02-28T12:50:08.776Z,102335.06
2023-02-28T12:52:54.220Z,102335.22
2023-02-28T12:55:39.122Z,102336.09
2023-02-28T12:58:11.508Z,102336.09
2023-02-28T13:00:39.277Z,102334.69
2023-02-28T13:03:34.262Z,102326.72
2023-02-28T13:06:00.625Z,102308.59
2023-02-28T13:08:39.009Z,102314.53
2023-02-28T13:11:13.103Z,102309.00
2023-02-28T13:13:46.226Z,102306.22
2023-02-28T13:16:12.616Z,102302.69
2023-02-28T13:18:46.470Z,102299.47
2023-02-28T13:21:28.213Z,102302.88
2023-02-28T13:24:00.852Z,102305.84
2023-02-28T13:26:36.692Z,102301.63
2023-02-28T13:29:23.872Z,102296.16
2023-02-28T13:32:20.106Z,102296.25
2023-02-28T13:34:52.626Z,102295.66
2023-02-28T13:37:19.015Z,102296.66
2023-02-28T13:39:52.550Z,102306.13
2023-02-28T13:42:31.180Z,102300.34
2023-02-28T13:45:07.190Z,102308.47
2023-02-28T13:47:39.867Z,102302.34
2023-02-28T13:50:21.406Z,102311.38
2023-02-28T13:53:23.493Z,102312.50
2023-02-28T13:56:11.394Z,102318.13
2023-02-28T13:58:53.114Z,102317.63
2023-02-28T14:01:48.503Z,102313.50
2023-02-28T14:04:27.528Z,102317.19
2023-02-28T14:06:54.973Z,102315.63
2023-02-28T14:09:30.354Z,102321.19
2023-02-28T14:11:56.984Z,102312.56
2023-02-28T14:14:35.566Z,102309.03
2023-02-28T14:17:10.532Z,102325.66
2023-02-28T14:19:37.950Z,102317.19
2023-02-28T14:22:13.331Z,102317.16
2023-02-28T14:24:42.722Z,102312.56
2023-02-28T14:27:18.482Z,102310.78
2023-02-28T14:29:47.902Z,102310.66
2023-02-28T14:32:34.098Z,102317.34
2023-02-28T14:35:17.907Z,102303.75
2023-02-28T14:37:44.297Z,102305.53
2023-02-28T14:40:16.832Z,102302.06
2023-02-28T14:42:48.151Z,102302.00
2023-02-28T14:45:19.654Z,102300.31
2023-02-28T14:47:46.048Z,102302.00
2023-02-28T14:50:20.502Z,102303.78
2023-02-28T14:52:46.871Z,102291.56
2023-02-28T14:55:16.412Z,102301.03
2023-02-28T14:57:51.452Z,102301.97
2023-02-28T15:00:27.895Z,102294.59
2023-02-28T15:02:55.014Z,102292.44
2023-02-28T15:05:25.895Z,102287.53
2023-02-28T15:08:04.363Z,102294.56
2023-02-28T15:10:31.569Z,102292.38
2023-02-28T15:13:12.327Z,102283.53
2023-02-28T15:16:02.774Z,102300.34
2023-02-28T15:18:33.270Z,102290.91
2023-02-28T15:21:01.688Z,102291.56
2023-02-28T15:23:28.050Z,102287.94
2023-02-28T15:25:54.453Z,102297.59
2023-02-28T15:28:21.626Z,102289.75
2023-02-28T15:30:59.713Z,102292.53
2023-02-28T15:33:30.701Z,102293.13
2023-02-28T15:36:08.282Z,102293.88
2023-02-28T15:38:35.993Z,102288.19
2023-02-28T15:41:02.473Z,102290.22
2023-02-28T15:43:33.109Z,102296.78
2023-02-28T15:46:19.740Z,102294.66
2023-02-28T15:48:54.107Z,102297.22
2023-02-28T15:51:30.090Z,102299.19
2023-02-28T15:54:06.645Z,102298.13
2023-02-28T15:56:37.465Z,102300.88
2023-02-28T15:59:05.783Z,102298.38
2023-02-28T16:01:36.470Z,102311.19
2023-02-28T16:04:15.367Z,102308.44
2023-02-28T16:06:45.804Z,102314.50
2023-02-28T16:09:16.471Z,102313.75
2023-02-28T16:11:50.312Z,102308.59
2023-02-28T16:14:21.308Z,102303.13
2023-02-28T16:16:49.530Z,102308.16
2023-02-28T16:19:16.218Z,102299.03
2023-02-28T16:21:42.606Z,102301.53
2023-02-28T16:24:09.027Z,102309.16
2023-02-28T16:26:35.436Z,102307.41
2023-02-28T16:29:02.353Z,102295.97
2023-02-28T16:31:29.236Z,102306.94
2023-02-28T16:33:57.979Z,102306.69
2023-02-28T16:36:28.529Z,102298.72
2023-02-28T16:38:55.576Z,102300.16
2023-02-28T16:41:23.364Z,102300.84
2023-02-28T16:43:51.135Z,102291.28
2023-02-28T16:46:17.892Z,102301.50
2023-02-28T16:48:45.778Z,102294.31
2023-02-28T16:51:13.493Z,102297.41
2023-02-28T16:53:39.948Z,102293.69
2023-02-28T16:56:08.008Z,102286.63
2023-02-28T16:58:36.517Z,102291.38
2023-02-28T17:01:03.956Z,102295.44
2023-02-28T17:03:33.681Z,102277.94
2023-02-28T17:06:00.473Z,102285.50
2023-02-28T17:08:27.587Z,102276.59
2023-02-28T17:10:54.196Z,102285.06
2023-02-28T17:13:20.562Z,102272.84
2023-02-28T17:15:47.480Z,102274.22
2023-02-28T17:18:19.782Z,102268.53
2023-02-28T17:20:46.720Z,102269.03
2023-02-28T17:23:13.090Z,102262.94
2023-02-28T17:25:39.465Z,102241.81
2023-02-28T17:28:06.132Z,102177.69
2023-02-28T17:30:34.087Z,102018.72
2023-02-28T17:33:00.693Z,101838.28
2023-02-28T17:35:27.741Z,101679.44
2023-02-28T17:37:54.190Z,101597.38
2023-02-28T17:40:22.458Z,101511.00
2023-02-28T17:42:48.823Z,101354.81
2023-02-28T17:45:15.591Z,101241.69
2023-02-28T17:47:43.083Z,101217.34
2023-02-28T17:50:17.603Z,101170.66
2023-02-28T17:52:44.069Z,101111.09
2023-02-28T17:55:11.181Z,101072.34
2023-02-28T17:57:37.529Z,101014.69
2023-02-28T18:00:07.534Z,101046.63
2023-02-28T18:02:34.239Z,101065.53
2023-02-28T18:05:00.714Z,101075.03
2023-02-28T18:07:27.114Z,101084.41
2023-02-28T18:09:53.552Z,101093.81
2023-02-28T18:12:20.094Z,101094.59
2023-02-28T18:14:48.520Z,101058.38
2023-02-28T18:17:14.960Z,101046.25
2023-02-28T18:19:41.825Z,101041.94
2023-02-28T18:22:08.670Z,101030.63
2023-02-28T18:24:35.540Z,101037.34
2023-02-28T18:27:02.139Z,101005.34
2023-02-28T18:29:28.516Z,100993.06
2023-02-28T18:31:55.887Z,100943.81
2023-02-28T18:34:23.077Z,100895.59
2023-02-28T18:36:50.837Z,100863.69
2023-02-28T18:39:17.635Z,100842.03
2023-02-28T18:41:43.998Z,100799.81
2023-02-28T18:44:19.096Z,100779.84
2023-02-28T18:46:46.240Z,100749.63
2023-02-28T18:49:12.736Z,100727.19
2023-02-28T18:51:39.158Z,100685.00
2023-02-28T18:54:05.576Z,100645.47
2023-02-28T18:56:32.121Z,100647.13
2023-02-28T18:58:58.710Z,100647.13
2023-02-28T19:01:32.134Z,100623.00
2023-02-28T19:04:00.711Z,100597.16
2023-02-28T19:06:28.185Z,100602.25
2023-02-28T19:08:58.757Z,100595.31
2023-02-28T19:11:25.284Z,100576.34
2023-02-28T19:13:51.738Z,100553.94
2023-02-28T19:16:19.542Z,100536.78
2023-02-28T19:18:46.010Z,100524.69
2023-02-28T19:21:13.669Z,100509.25
2023-02-28T19:23:40.660Z,100486.84
2023-02-28T19:26:08.082Z,100493.72
2023-02-28T19:28:34.591Z,100480.78
2023-02-28T19:31:01.148Z,100484.19
2023-02-28T19:33:27.499Z,100476.44
2023-02-28T19:35:55.215Z,100471.28
2023-02-28T19:38:21.665Z,100457.53
2023-02-28T19:40:48.068Z,100447.19
2023-02-28T19:43:14.425Z,100445.44
2023-02-28T19:45:40.837Z,100440.25
2023-02-28T19:48:09.751Z,100442.75
2023-02-28T19:50:37.525Z,100429.81
2023-02-28T19:53:04.236Z,100420.38
2023-02-28T19:55:30.646Z,100429.78
2023-02-28T19:57:56.975Z,100434.06
2023-02-28T20:00:23.486Z,100427.16
2023-02-28T20:02:49.837Z,100426.31
2023-02-28T20:05:16.222Z,100415.97
2023-02-28T20:07:42.588Z,100417.66
2023-02-28T20:10:09.812Z,100422.69
2023-02-28T20:12:36.267Z,100422.59
2023-02-28T20:15:02.753Z,100410.56
2023-02-28T20:17:30.295Z,100404.59
2023-02-28T20:19:56.744Z,100402.84
2023-02-28T20:22:23.148Z,100405.41
2023-02-28T20:24:49.619Z,100407.09
2023-02-28T20:27:16.048Z,100396.72
2023-02-28T20:29:42.468Z,100400.94
2023-02-28T20:32:08.940Z,100388.03
2023-02-28T20:34:35.486Z,100387.16
2023-02-28T20:37:01.932Z,100378.50
2023-02-28T20:39:28.319Z,100369.03
2023-02-28T20:41:54.700Z,100342.50
2023-02-28T20:44:21.119Z,100348.44
2023-02-28T20:46:47.580Z,100339.88
2023-02-28T20:49:15.078Z,100345.81
2023-02-28T20:51:42.249Z,100349.16
2023-02-28T20:54:08.895Z,100349.16
2023-02-28T20:56:35.359Z,100346.63
2023-02-28T20:59:01.728Z,100350.03
2023-02-28T21:01:28.482Z,100351.69
2023-02-28T21:03:56.146Z,100344.81
2023-02-28T21:06:28.350Z,100346.50
2023-02-28T21:08:55.077Z,100344.75
2023-02-28T21:11:24.455Z,100350.69
2023-02-28T21:13:54.349Z,100336.13
2023-02-28T21:16:24.395Z,100329.19
2023-02-28T21:18:52.726Z,100328.31
2023-02-28T21:21:20.724Z,100322.25
2023-02-28T21:23:47.288Z,100317.97
2023-02-28T21:26:18.696Z,100317.97
2023-02-28T21:28:58.600Z,100311.88
2023-02-28T21:31:26.077Z,100300.75
2023-02-28T21:33:54.023Z,100298.97
2023-02-28T21:36:22.138Z,100291.22
2023-02-28T21:38:51.156Z,100282.56
2023-02-28T21:41:19.208Z,100280.78
2023-02-28T21:43:45.867Z,100267.91
2023-02-28T21:46:19.737Z,100263.66
2023-02-28T21:48:48.843Z,100265.34
2023-02-28T21:51:22.480Z,100270.44
2023-02-28T21:53:49.006Z,100258.44
2023-02-28T21:56:20.796Z,100260.09
2023-02-28T21:58:47.349Z,100254.94
2023-02-28T22:01:15.733Z,100243.72
2023-02-28T22:03:42.482Z,100241.94
2023-02-28T22:06:22.167Z,100239.38
2023-02-28T22:08:50.584Z,100229.09
2023-02-28T22:11:17.554Z,100225.56
2023-02-28T22:13:43.889Z,100223.81
2023-02-28T22:16:12.751Z,100218.69
2023-02-28T22:18:39.642Z,100228.91
2023-02-28T22:21:06.486Z,100225.47
2023-02-28T22:23:32.932Z,100228.81
2023-02-28T22:26:07.126Z,100218.50
2023-02-28T22:28:33.684Z,100215.91
2023-02-28T22:31:00.355Z,100216.66
2023-02-28T22:33:27.133Z,100211.50
2023-02-28T22:35:53.810Z,100202.94
2023-02-28T22:38:20.261Z,100208.00
2023-02-28T22:40:46.617Z,100210.50
2023-02-28T22:43:13.148Z,100202.72
2023-02-28T22:45:39.934Z,100210.47
2023-02-28T22:48:07.567Z,100209.50
2023-02-28T22:50:34.095Z,100195.78
2023-02-28T22:53:00.758Z,100198.38
2023-02-28T22:55:27.241Z,100195.72
2023-02-28T22:57:53.681Z,100190.59
2023-02-28T23:00:20.335Z,100188.03
2023-02-28T23:02:47.229Z,100209.31
2023-02-28T23:05:14.151Z,100204.13
2023-02-28T23:07:40.842Z,100204.97
2023-02-28T23:10:12.219Z,100197.31
2023-02-28T23:12:50.007Z,100196.47
2023-02-28T23:15:18.184Z,100199.72
2023-02-28T23:17:45.128Z,100209.16
2023-02-28T23:20:16.307Z,100208.25
2023-02-28T23:22:46.484Z,100205.69
2023-02-28T23:25:13.944Z,100203.91
2023-02-28T23:27:40.552Z,100207.25
2023-02-28T23:30:07.819Z,100208.94
2023-02-28T23:32:34.293Z,100202.09
2023-02-28T23:35:00.856Z,100211.44
2023-02-28T23:37:27.193Z,100207.16
2023-02-28T23:39:53.666Z,100208.88
2023-02-28T23:42:20.395Z,100202.03
2023-02-28T23:44:46.784Z,100208.84
2023-02-28T23:47:14.076Z,100207.06
2023-02-28T23:49:40.484Z,100198.44
2023-02-28T23:52:06.912Z,100203.53
2023-02-28T23:54:33.258Z,100194.91
2023-02-28T23:56:59.635Z,100202.50
2023-02-28T23:59:26.017Z,100199.88
